Time;durP1;ratioP1;P1;durP2;ratioP2;P2;SDS_P1;SDS_P2;PMS_P1;PMS_P2;Temp;Humidity;BMP_temperature;BMP_pressure;BME280_temperature;BME280_humidity;BME280_pressure;Samples;Min_cycle;Max_cycle;Signal;HPM_P1;HPM_P2
2021/03/15 00:02:00;;;;;;;4.90;2.55;;;;;;;3.94;73.71;99985.59;4983011;28;20042;-75
2021/03/15 00:04:25;;;;;;;4.30;2.40;;;;;;;3.89;73.59;99988.13;4992210;28;20041;-75
2021/03/15 00:06:50;;;;;;;7.15;2.97;;;;;;;3.84;73.73;99987.19;4982585;28;20045;-74
2021/03/15 00:09:16;;;;;;;5.45;3.03;;;;;;;3.77;73.94;99982.75;4982856;28;20101;-75
2021/03/15 00:11:41;;;;;;;6.65;3.20;;;;;;;3.70;74.28;99976.59;4979623;28;20046;-75
2021/03/15 00:14:06;;;;;;;5.15;2.90;;;;;;;3.65;74.17;99985.22;4987371;28;20096;-75
2021/03/15 00:16:32;;;;;;;6.78;3.00;;;;;;;3.56;74.50;99985.09;4991761;28;20038;-75
2021/03/15 00:18:57;;;;;;;6.10;3.35;;;;;;;3.49;74.65;99976.31;4992162;28;20038;-76
2021/03/15 00:21:22;;;;;;;4.95;2.88;;;;;;;3.40;74.92;99968.34;4992026;28;20121;-75
2021/03/15 00:23:48;;;;;;;4.90;2.75;;;;;;;3.31;74.88;99973.47;4991893;28;20130;-75
2021/03/15 00:26:13;;;;;;;6.70;3.03;;;;;;;3.23;75.02;99966.38;4982626;28;20137;-76
2021/03/15 00:28:38;;;;;;;7.70;3.22;;;;;;;3.18;75.93;99967.19;4991881;28;20034;-75
2021/03/15 00:31:04;;;;;;;6.68;3.00;;;;;;;3.27;75.64;99967.28;4982608;28;20038;-75
2021/03/15 00:33:29;;;;;;;7.32;3.40;;;;;;;3.38;75.95;99973.56;4982585;28;20039;-75
2021/03/15 00:35:54;;;;;;;6.53;3.60;;;;;;;3.51;75.21;99970.25;4991494;28;20038;-75
2021/03/15 00:38:20;;;;;;;5.22;3.45;;;;;;;3.60;75.37;99969.50;4982393;28;20031;-75
2021/03/15 00:40:45;;;;;;;9.18;3.65;;;;;;;3.68;74.42;99964.38;4991703;28;20129;-75
2021/03/15 00:43:11;;;;;;;5.85;3.42;;;;;;;3.70;74.68;99963.53;4991771;28;20117;-75
2021/03/15 00:45:36;;;;;;;6.07;3.50;;;;;;;3.76;74.68;99970.56;4991567;28;20049;-75
2021/03/15 00:48:01;;;;;;;6.50;3.72;;;;;;;3.81;74.81;99966.28;4966283;28;20112;-75
2021/03/15 00:50:40;;;;;;;8.50;4.20;;;;;;;3.86;74.70;99959.38;4982357;28;20460;-75
2021/03/15 00:53:09;;;;;;;5.25;3.20;;;;;;;3.95;73.63;99967.31;4966631;28;20120;-75
2021/03/15 00:55:35;;;;;;;6.40;4.00;;;;;;;4.02;74.45;99960.44;4992267;28;20069;-75
2021/03/15 00:58:02;;;;;;;6.32;3.90;;;;;;;4.10;74.10;99965.75;4986190;28;20114;-75
2021/03/15 01:00:30;;;;;;;6.20;3.75;;;;;;;4.09;74.28;99961.41;4986153;28;20417;-75
2021/03/15 01:03:10;;;;;;;6.13;3.90;;;;;;;4.05;74.50;99957.84;4995600;28;20472;-75
2021/03/15 01:05:44;;;;;;;9.35;4.35;;;;;;;4.13;74.24;99964.03;4995017;28;20046;-75
2021/03/15 01:08:27;;;;;;;7.90;4.10;;;;;;;4.08;74.54;99960.50;4986117;28;20461;-75
2021/03/15 01:10:53;;;;;;;7.72;5.10;;;;;;;3.99;75.07;99949.09;4986015;28;20125;-75
2021/03/15 01:13:18;;;;;;;7.55;4.88;;;;;;;4.01;74.46;99956.09;4995264;28;20041;-75
2021/03/15 01:15:45;;;;;;;8.05;4.55;;;;;;;4.01;74.99;99950.88;4995063;28;20030;-75
2021/03/15 01:18:10;;;;;;;6.38;4.13;;;;;;;3.96;75.27;99957.75;4969532;28;20030;-75
2021/03/15 01:20:38;;;;;;;7.45;4.15;;;;;;;3.98;75.35;99949.94;4985861;28;20045;-75
2021/03/15 01:23:04;;;;;;;8.13;4.47;;;;;;;4.03;75.00;99945.63;4995238;28;20210;-75
2021/03/15 01:25:32;;;;;;;7.22;4.20;;;;;;;4.03;74.89;99949.13;4988929;28;20073;-75
2021/03/15 01:27:58;;;;;;;7.22;4.72;;;;;;;4.12;74.97;99941.41;4994962;28;20492;-75
2021/03/15 01:30:29;;;;;;;8.23;4.72;;;;;;;4.09;75.30;99943.13;4994914;28;20038;-75
2021/03/15 01:32:54;;;;;;;6.55;4.60;;;;;;;4.13;75.23;99940.53;4985643;28;20041;-75
2021/03/15 01:35:20;;;;;;;7.55;4.72;;;;;;;4.13;75.12;99939.66;4994615;28;20034;-75
2021/03/15 01:37:45;;;;;;;8.15;4.82;;;;;;;4.13;75.40;99937.03;4994611;28;20034;-75
2021/03/15 01:40:11;;;;;;;8.35;5.40;;;;;;;4.17;75.02;99941.44;4994772;28;20042;-75
2021/03/15 01:42:36;;;;;;;6.93;4.57;;;;;;;4.15;75.40;99940.56;4994689;28;20042;-75
2021/03/15 01:45:03;;;;;;;11.18;5.55;;;;;;;4.15;75.18;99945.78;4985200;28;20042;-75
2021/03/15 01:47:28;;;;;;;7.97;5.00;;;;;;;4.19;75.10;99934.47;4993585;28;20035;-76
2021/03/15 01:49:53;;;;;;;7.45;4.85;;;;;;;4.17;75.25;99933.63;4994558;28;20046;-76
2021/03/15 01:52:21;;;;;;;7.25;4.82;;;;;;;4.17;75.06;99925.78;4994533;28;20038;-75
2021/03/15 01:54:47;;;;;;;10.48;5.75;;;;;;;4.18;75.30;99924.91;4994619;28;20042;-75
2021/03/15 01:57:12;;;;;;;8.02;5.45;;;;;;;4.10;74.98;99916.13;4994063;28;20549;-76
2021/03/15 01:59:38;;;;;;;6.75;4.72;;;;;;;3.99;75.32;99915.16;4985057;28;20049;-75
2021/03/15 02:02:04;;;;;;;8.85;4.57;;;;;;;3.93;75.50;99914.22;4994369;28;20113;-75
2021/03/15 02:04:29;;;;;;;7.25;4.95;;;;;;;3.93;76.30;99915.97;4994306;28;20405;-76
2021/03/15 02:06:55;;;;;;;9.43;4.82;;;;;;;3.95;76.17;99915.09;4993654;28;20031;-75
2021/03/15 02:09:21;;;;;;;8.68;4.90;;;;;;;4.02;76.02;99916.03;4993758;28;20049;-75
2021/03/15 02:12:01;;;;;;;7.30;4.93;;;;;;;4.13;75.96;99910.94;4994265;28;20044;-75
2021/03/15 02:14:34;;;;;;;7.60;4.43;;;;;;;4.23;75.32;99904.06;4994153;28;20041;-75
2021/03/15 02:17:15;;;;;;;10.63;5.78;;;;;;;4.22;75.75;99899.69;4993749;28;20485;-76
2021/03/15 02:20:17;;;;;;;9.65;5.43;;;;;;;4.24;75.41;99898.84;4994010;28;20076;-75
2021/03/15 02:22:58;;;;;;;10.73;5.72;;;;;;;4.31;75.22;99892.81;4973542;28;20038;-75
2021/03/15 02:25:45;;;;;;;8.77;5.25;;;;;;;4.34;75.39;99898.06;4991225;28;20038;-75
2021/03/15 02:28:47;;;;;;;10.45;5.72;;;;;;;4.29;75.17;99891.06;4984815;28;20125;-75
2021/03/15 02:31:42;;;;;;;7.45;5.35;;;;;;;4.33;74.81;99887.63;4977311;28;20043;-75
2021/03/15 02:34:44;;;;;;;10.50;6.25;;;;;;;4.27;75.25;99877.09;5008964;28;20046;-75
2021/03/15 02:37:12;;;;;;;8.23;5.57;;;;;;;4.26;75.54;99880.59;4984581;28;20034;-75
2021/03/15 02:39:44;;;;;;;8.68;5.35;;;;;;;4.24;75.43;99888.38;4993722;28;20041;-75
2021/03/15 02:42:14;;;;;;;11.07;5.88;;;;;;;4.23;75.38;99885.78;4993755;28;20038;-75
2021/03/15 02:44:45;;;;;;;10.20;5.78;;;;;;;4.23;75.35;99880.56;4993736;28;20042;-76
2021/03/15 02:47:20;;;;;;;9.07;6.20;;;;;;;4.26;75.54;99878.84;4993365;28;20038;-75
2021/03/15 02:49:50;;;;;;;8.10;5.20;;;;;;;4.30;74.79;99874.53;4973222;28;20400;-75
2021/03/15 02:52:17;;;;;;;9.63;6.72;;;;;;;4.25;75.25;99871.88;4989981;28;20382;-75
2021/03/15 02:54:45;;;;;;;8.50;6.15;;;;;;;4.24;75.18;99880.56;5002496;23;20038;-70
2021/03/15 02:57:14;;;;;;;12.45;5.93;;;;;;;4.26;75.25;99870.13;5009970;28;20113;-69
2021/03/15 02:59:42;;;;;;;9.52;6.35;;;;;;;4.28;75.30;99878.88;5012647;28;20040;-69
2021/03/15 03:02:07;;;;;;;8.95;6.20;;;;;;;4.33;75.50;99871.94;5012824;28;20034;-69
2021/03/15 03:04:33;;;;;;;8.57;6.03;;;;;;;4.36;74.38;99877.19;5012772;28;20084;-69
2021/03/15 03:07:01;;;;;;;11.20;7.15;;;;;;;4.43;74.86;99872.88;5004335;28;20041;-69
2021/03/15 03:09:28;;;;;;;10.40;6.32;;;;;;;4.40;74.76;99873.72;5003189;28;20038;-70
2021/03/15 03:11:55;;;;;;;9.57;6.50;;;;;;;4.46;74.85;99879.03;5001171;28;20048;-69
2021/03/15 03:14:21;;;;;;;10.68;6.28;;;;;;;4.51;74.60;99873.84;5001569;28;20058;-69
2021/03/15 03:16:48;;;;;;;9.13;6.35;;;;;;;4.53;74.67;99875.59;5004094;28;20038;-69
2021/03/15 03:19:17;;;;;;;13.73;8.70;;;;;;;4.61;75.55;99878.25;5004632;28;20400;-69
2021/03/15 03:21:45;;;;;;;11.10;7.00;;;;;;;4.64;74.90;99880.00;5001007;28;20397;-69
2021/03/15 03:24:13;;;;;;;9.88;6.00;;;;;;;4.67;74.06;99867.84;5000925;28;20120;-69
2021/03/15 03:26:39;;;;;;;10.63;6.50;;;;;;;4.63;74.24;99876.53;5003539;28;20042;-69
2021/03/15 03:29:08;;;;;;;9.07;6.82;;;;;;;4.64;74.30;99867.84;5010658;28;20045;-69
2021/03/15 03:31:38;;;;;;;13.15;7.90;;;;;;;4.67;74.03;99861.75;5002106;28;20125;-69
2021/03/15 03:34:03;;;;;;;12.20;7.43;;;;;;;4.66;74.08;99863.47;5000710;28;20038;-69
2021/03/15 03:36:29;;;;;;;12.68;7.18;;;;;;;4.63;73.71;99863.44;5002130;28;20026;-69
2021/03/15 03:38:55;;;;;;;11.85;7.55;;;;;;;4.61;73.79;99858.22;5004254;28;20030;-70
2021/03/15 03:41:21;;;;;;;11.55;6.25;;;;;;;4.62;74.07;99866.94;5003647;28;20120;-69
2021/03/15 03:43:46;;;;;;;11.82;6.72;;;;;;;4.57;73.74;99861.69;5000643;28;20077;-69
2021/03/15 03:46:14;;;;;;;11.30;6.80;;;;;;;4.55;73.90;99872.97;5000306;28;20034;-70
2021/03/15 03:48:40;;;;;;;11.00;6.45;;;;;;;4.54;73.82;99874.72;5003542;28;20033;-70
2021/03/15 03:51:06;;;;;;;11.60;6.68;;;;;;;4.51;73.75;99873.84;5003744;28;20080;-69
2021/03/15 03:53:46;;;;;;;11.57;7.32;;;;;;;4.57;73.73;99879.09;5001873;28;20077;-69
2021/03/15 03:56:24;;;;;;;11.23;6.75;;;;;;;4.63;73.65;99871.28;4999951;28;20132;-69
2021/03/15 03:58:53;;;;;;;10.50;6.93;;;;;;;4.65;73.67;99877.41;4993343;28;20042;-69
2021/03/15 04:01:30;;;;;;;10.35;6.25;;;;;;;4.70;73.56;99869.63;5000414;28;20046;-70
2021/03/15 04:03:57;;;;;;;12.80;7.40;;;;;;;4.71;73.06;99874.84;5003719;28;20047;-70
2021/03/15 04:06:25;;;;;;;11.23;7.32;;;;;;;4.71;73.06;99868.72;5002807;28;20045;-69
2021/03/15 04:09:03;;;;;;;11.30;7.55;;;;;;;4.61;73.32;99876.53;5000314;28;20113;-69
2021/03/15 04:11:31;;;;;;;10.88;6.72;;;;;;;4.67;73.21;99873.09;5001698;28;20038;-69
2021/03/15 04:13:59;;;;;;;11.55;7.70;;;;;;;4.59;73.40;99877.38;5003484;28;20030;-69
2021/03/15 04:16:34;;;;;;;12.00;7.57;;;;;;;4.50;73.35;99874.69;5002258;28;20040;-69
2021/03/15 04:19:06;;;;;;;10.55;6.75;;;;;;;4.36;73.49;99872.84;5000280;28;20374;-70
2021/03/15 04:21:33;;;;;;;13.35;7.85;;;;;;;4.21;73.85;99872.69;5001832;28;20038;-69
2021/03/15 04:24:01;;;;;;;12.15;7.22;;;;;;;4.06;73.75;99872.53;5003422;28;20029;-69
2021/03/15 04:26:27;;;;;;;13.52;7.30;;;;;;;3.94;74.25;99879.41;5001860;28;20042;-69
2021/03/15 04:28:54;;;;;;;10.75;6.95;;;;;;;3.83;74.47;99878.44;5000155;28;20440;-69
2021/03/15 04:31:20;;;;;;;12.85;7.70;;;;;;;3.75;74.50;99874.88;4999749;28;20027;-70
2021/03/15 04:33:46;;;;;;;12.95;7.68;;;;;;;3.64;74.59;99872.16;5003343;28;20029;-69
2021/03/15 04:36:17;;;;;;;10.27;6.88;;;;;;;3.55;75.04;99868.53;5003043;28;20038;-69
2021/03/15 04:38:44;;;;;;;9.65;5.93;;;;;;;3.40;75.34;99870.09;4999940;28;20508;-69
2021/03/15 04:41:10;;;;;;;10.93;6.35;;;;;;;3.33;75.44;99868.28;4999828;28;20043;-69
2021/03/15 04:43:38;;;;;;;9.93;6.88;;;;;;;3.23;75.65;99866.41;5002402;28;20034;-69
2021/03/15 04:46:08;;;;;;;12.13;7.18;;;;;;;3.12;76.29;99863.69;4997507;28;20493;-70
2021/03/15 04:48:36;;;;;;;9.95;6.38;;;;;;;3.06;76.06;99856.63;4999713;28;20026;-70
2021/03/15 04:51:04;;;;;;;12.70;7.70;;;;;;;2.98;76.61;99855.66;5003249;28;20045;-69
2021/03/15 04:53:32;;;;;;;12.55;6.95;;;;;;;2.94;76.22;99863.44;5001540;28;20066;-70
2021/03/15 04:56:02;;;;;;;15.45;7.13;;;;;;;2.85;77.34;99856.34;4999293;28;20026;-69
2021/03/15 04:58:29;;;;;;;9.55;5.65;;;;;;;2.80;76.92;99856.28;5001175;28;20030;-69
2021/03/15 05:00:57;;;;;;;10.98;6.60;;;;;;;2.75;76.86;99849.22;5003027;28;20034;-69
2021/03/15 05:03:23;;;;;;;9.07;6.00;;;;;;;2.73;77.13;99853.56;5002500;28;20038;-69
2021/03/15 05:05:51;;;;;;;11.48;6.50;;;;;;;2.71;77.06;99853.53;4999303;28;20545;-69
2021/03/15 05:08:19;;;;;;;13.15;7.03;;;;;;;2.70;77.62;99853.50;4999578;28;20030;-70
2021/03/15 05:10:46;;;;;;;15.65;7.07;;;;;;;2.69;77.18;99857.84;4991787;28;20041;-69
2021/03/15 05:13:12;;;;;;;9.75;5.85;;;;;;;2.71;76.98;99855.28;4999652;28;20076;-69
2021/03/15 05:15:39;;;;;;;11.10;6.57;;;;;;;2.69;77.45;99856.97;5001872;28;20039;-69
2021/03/15 05:18:08;;;;;;;8.77;6.40;;;;;;;2.68;76.80;99855.22;5002947;28;20050;-69
2021/03/15 05:20:36;;;;;;;10.45;6.22;;;;;;;2.68;77.47;99850.88;5000726;28;20034;-69
2021/03/15 05:23:08;;;;;;;12.32;6.70;;;;;;;2.64;76.91;99844.75;5000276;28;20053;-69
2021/03/15 05:25:36;;;;;;;12.32;6.40;;;;;;;2.65;77.39;99850.84;5002266;28;20409;-69
2021/03/15 05:28:04;;;;;;;10.40;6.88;;;;;;;2.71;77.16;99852.66;5002925;28;20377;-70
2021/03/15 05:30:30;;;;;;;10.60;6.90;;;;;;;2.75;76.44;99851.84;5001108;28;20064;-70
2021/03/15 05:32:56;;;;;;;12.50;7.20;;;;;;;2.78;76.23;99858.00;4999444;28;20038;-69
2021/03/15 05:35:24;;;;;;;10.55;6.50;;;;;;;2.84;75.90;99854.59;4999566;28;20073;-69
2021/03/15 05:37:50;;;;;;;10.70;6.80;;;;;;;2.88;76.41;99853.75;5002698;28;20060;-70
2021/03/15 05:40:21;;;;;;;12.07;6.82;;;;;;;2.89;75.60;99849.44;5002783;28;20544;-70
2021/03/15 05:42:46;;;;;;;10.85;6.93;;;;;;;2.98;75.67;99854.78;4992683;28;20041;-70
2021/03/15 05:45:50;;;;;;;10.70;6.68;;;;;;;3.00;75.07;99843.50;5002503;28;20034;-69
2021/03/15 05:48:52;;;;;;;12.75;6.55;;;;;;;3.07;75.21;99844.50;4997886;28;20034;-70
2021/03/15 05:51:23;;;;;;;11.45;7.25;;;;;;;3.23;74.33;99840.34;4999402;28;20042;-70
2021/03/15 05:54:10;;;;;;;10.13;6.55;;;;;;;3.33;74.44;99851.75;4995674;28;20034;-70
2021/03/15 05:56:51;;;;;;;12.30;7.28;;;;;;;3.41;74.20;99840.56;5004463;28;20045;-69
2021/03/15 05:59:28;;;;;;;11.63;6.90;;;;;;;3.54;73.96;99845.91;5004600;28;20030;-70
2021/03/15 06:02:26;;;;;;;11.63;6.93;;;;;;;3.59;73.35;99845.13;4995965;28;20544;-69
2021/03/15 06:05:24;;;;;;;14.70;7.50;;;;;;;3.66;73.37;99840.81;5006089;28;20162;-70
2021/03/15 06:08:12;;;;;;;12.38;7.60;;;;;;;3.76;72.71;99842.69;4995300;28;20417;-70
2021/03/15 06:11:04;;;;;;;14.48;8.07;;;;;;;3.82;72.41;99834.91;5004983;28;20046;-69
2021/03/15 06:13:34;;;;;;;13.02;6.97;;;;;;;3.91;72.11;99827.16;5004088;28;20026;-69
2021/03/15 06:16:04;;;;;;;11.15;7.25;;;;;;;4.00;71.77;99828.13;5001930;28;20045;-70
2021/03/15 06:18:30;;;;;;;13.45;7.65;;;;;;;4.04;72.07;99822.94;4986337;28;20411;-70
2021/03/15 06:20:57;;;;;;;10.27;6.97;;;;;;;4.12;71.81;99831.72;5005503;28;20040;-69
2021/03/15 06:23:23;;;;;;;11.50;7.65;;;;;;;4.17;71.26;99823.94;5004992;28;20038;-70
2021/03/15 06:25:49;;;;;;;13.55;7.18;;;;;;;4.23;71.26;99826.56;5001796;28;20041;-70
2021/03/15 06:28:16;;;;;;;12.25;6.97;;;;;;;4.32;70.55;99821.44;5001906;28;20038;-70
2021/03/15 06:30:43;;;;;;;11.90;6.95;;;;;;;4.38;70.48;99824.09;5005127;28;20046;-70
2021/03/15 06:33:09;;;;;;;11.50;7.45;;;;;;;4.40;70.29;99826.69;5005268;28;20084;-70
2021/03/15 06:35:37;;;;;;;13.02;7.93;;;;;;;4.45;70.64;99821.50;5002793;28;20041;-70
2021/03/15 06:38:04;;;;;;;10.85;7.20;;;;;;;4.54;70.33;99822.47;5001766;28;20455;-70
2021/03/15 06:40:32;;;;;;;9.70;6.88;;;;;;;4.57;70.07;99824.22;5003347;28;20489;-70
2021/03/15 06:43:00;;;;;;;11.75;7.63;;;;;;;4.62;69.90;99822.50;5005377;28;20390;-70
2021/03/15 06:45:26;;;;;;;11.40;6.82;;;;;;;4.68;69.39;99830.38;5003675;28;20559;-70
2021/03/15 06:47:51;;;;;;;13.77;7.97;;;;;;;4.74;70.17;99826.94;5001686;28;20037;-70
2021/03/15 06:50:18;;;;;;;9.85;6.68;;;;;;;4.81;69.71;99834.81;5001529;28;20493;-70
2021/03/15 06:52:54;;;;;;;10.13;6.75;;;;;;;4.76;69.56;99831.31;4993738;28;20088;-70
2021/03/15 06:55:20;;;;;;;9.95;6.88;;;;;;;4.86;69.76;99833.97;5001069;28;20057;-70
2021/03/15 06:57:46;;;;;;;10.38;7.20;;;;;;;4.86;69.38;99833.97;5004707;28;20040;-70
2021/03/15 07:00:12;;;;;;;11.80;7.10;;;;;;;4.91;69.24;99846.22;5004676;28;20045;-70
2021/03/15 07:02:37;;;;;;;11.13;7.00;;;;;;;4.93;69.13;99838.41;5002053;28;20065;-70
2021/03/15 07:05:11;;;;;;;10.80;6.75;;;;;;;4.95;69.27;99844.47;5001305;28;20789;-70
2021/03/15 07:07:38;;;;;;;14.23;8.50;;;;;;;4.96;69.77;99843.63;5003712;28;20058;-70
2021/03/15 07:10:15;;;;;;;11.27;6.78;;;;;;;4.96;68.83;99846.25;5004524;28;20030;-70
2021/03/15 07:12:40;;;;;;;12.02;6.82;;;;;;;5.01;69.26;99847.16;5001552;28;20042;-70
2021/03/15 07:15:06;;;;;;;11.52;6.22;;;;;;;4.88;69.29;99853.19;5000843;28;20523;-70
2021/03/15 07:17:32;;;;;;;11.98;6.90;;;;;;;4.83;70.16;99851.41;4980663;28;20137;-70
2021/03/15 07:19:58;;;;;;;10.95;6.85;;;;;;;4.81;70.63;99857.47;4997599;28;20092;-70
2021/03/15 07:22:28;;;;;;;12.95;7.57;;;;;;;4.74;71.36;99863.53;5001691;28;20045;-70
2021/03/15 07:25:07;;;;;;;12.93;8.23;;;;;;;4.67;72.65;99857.41;5004331;28;20404;-70
2021/03/15 07:27:34;;;;;;;11.18;7.00;;;;;;;4.74;72.67;99864.44;5002210;28;20391;-70
2021/03/15 07:30:28;;;;;;;12.45;9.27;;;;;;;4.71;73.17;99860.91;4998747;28;20046;-70
2021/03/15 07:33:05;;;;;;;11.07;7.53;;;;;;;4.67;73.26;99860.00;4993772;28;20064;-70
2021/03/15 07:35:35;;;;;;;11.52;8.57;;;;;;;4.67;73.52;99857.41;4994561;28;20038;-70
2021/03/15 07:38:00;;;;;;;10.80;8.20;;;;;;;4.68;74.17;99853.91;5001490;28;20033;-70
2021/03/15 07:40:38;;;;;;;12.32;7.75;;;;;;;4.72;74.07;99858.31;5003089;28;20030;-70
2021/03/15 07:43:06;;;;;;;13.02;7.68;;;;;;;4.76;74.39;99857.44;4999447;28;20120;-70
2021/03/15 07:45:36;;;;;;;11.05;7.90;;;;;;;4.80;74.08;99858.34;4995247;28;20038;-70
2021/03/15 07:48:15;;;;;;;10.98;7.28;;;;;;;4.75;74.08;99850.47;5000918;28;20034;-70
2021/03/15 07:50:53;;;;;;;11.80;7.63;;;;;;;4.74;73.62;99863.53;5003570;28;20046;-70
2021/03/15 07:53:33;;;;;;;11.40;7.80;;;;;;;4.70;74.84;99862.63;5003874;28;20504;-69
2021/03/15 07:55:58;;;;;;;11.38;7.60;;;;;;;4.71;74.99;99853.06;5000135;28;20528;-69
2021/03/15 07:58:33;;;;;;;15.05;8.20;;;;;;;4.70;75.72;99862.63;5001032;28;20042;-70
2021/03/15 08:00:59;;;;;;;11.80;7.45;;;;;;;4.71;75.40;99853.91;4996159;28;20110;-70
2021/03/15 08:03:25;;;;;;;14.73;8.57;;;;;;;4.74;75.83;99851.34;4998699;28;20085;-70
2021/03/15 08:05:52;;;;;;;12.57;8.55;;;;;;;4.83;75.54;99859.25;5002805;28;20030;-70
2021/03/15 08:08:18;;;;;;;17.17;9.38;;;;;;;4.79;75.55;99847.03;4992086;28;20093;-70
2021/03/15 08:10:44;;;;;;;15.48;8.95;;;;;;;4.92;75.58;99849.69;5000428;28;20033;-70
2021/03/15 08:13:12;;;;;;;15.05;8.48;;;;;;;4.97;75.87;99854.09;5000269;28;20057;-70
2021/03/15 08:15:39;;;;;;;12.75;8.25;;;;;;;5.18;74.80;99850.72;5002528;28;20078;-70
2021/03/15 08:18:08;;;;;;;15.90;9.48;;;;;;;5.29;74.87;99842.91;5003415;28;20087;-70
2021/03/15 08:20:41;;;;;;;9.68;6.93;;;;;;;5.39;74.59;99857.78;5001492;28;20084;-70
2021/03/15 08:23:06;;;;;;;14.15;9.05;;;;;;;5.32;74.30;99847.28;5000227;28;20037;-70
2021/03/15 08:25:32;;;;;;;14.50;8.68;;;;;;;5.32;74.20;99849.88;5001595;28;20126;-70
2021/03/15 08:28:02;;;;;;;12.23;8.50;;;;;;;5.47;74.78;99845.59;5003409;28;20136;-70
2021/03/15 08:30:31;;;;;;;16.20;9.43;;;;;;;5.54;74.62;99849.13;5002241;28;20045;-70
2021/03/15 08:32:57;;;;;;;13.10;9.45;;;;;;;5.60;75.25;99846.50;5000024;28;20034;-70
2021/03/15 08:35:23;;;;;;;14.48;8.85;;;;;;;5.74;74.66;99843.94;5000381;28;20121;-70
2021/03/15 08:37:59;;;;;;;15.43;9.98;;;;;;;5.44;74.49;99847.34;5003414;28;20124;-70
2021/03/15 08:40:43;;;;;;;14.18;9.25;;;;;;;5.20;75.35;99846.34;5002534;28;20038;-70
2021/03/15 08:43:18;;;;;;;13.95;8.73;;;;;;;5.16;75.79;99842.00;4999939;28;20062;-70
2021/03/15 08:45:48;;;;;;;13.48;9.00;;;;;;;5.05;77.08;99836.69;4978983;28;20042;-70
2021/03/15 08:48:14;;;;;;;14.90;9.60;;;;;;;5.07;77.32;99835.84;4995905;28;20030;-70
2021/03/15 08:50:50;;;;;;;14.52;9.80;;;;;;;5.17;77.17;99840.25;5002692;28;20040;-70
2021/03/15 08:53:37;;;;;;;11.45;8.80;;;;;;;5.08;77.61;99838.44;5003239;28;20037;-70
2021/03/15 08:56:12;;;;;;;16.60;10.00;;;;;;;4.99;77.84;99841.03;4993824;28;20429;-70
2021/03/15 08:58:42;;;;;;;16.05;9.45;;;;;;;4.99;78.21;99838.41;5007822;28;20069;-69
2021/03/15 09:01:11;;;;;;;15.30;8.07;;;;;;;4.98;77.66;99836.69;4999490;28;20050;-70
2021/03/15 09:03:56;;;;;;;13.52;9.68;;;;;;;4.83;78.19;99842.69;5002138;28;20062;-70
2021/03/15 09:06:33;;;;;;;11.80;8.48;;;;;;;5.02;77.19;99841.03;5002424;28;20042;-70
2021/03/15 09:09:00;;;;;;;13.40;9.27;;;;;;;4.97;78.43;99834.91;4999595;28;20054;-70
2021/03/15 09:11:37;;;;;;;12.43;8.48;;;;;;;4.86;78.03;99844.44;5000517;28;20030;-70
2021/03/15 09:14:25;;;;;;;14.30;9.80;;;;;;;4.75;79.60;99847.00;5002977;28;20041;-70
2021/03/15 09:16:58;;;;;;;12.15;9.85;;;;;;;4.75;79.72;99844.38;4993156;28;20388;-70
2021/03/15 09:19:34;;;;;;;13.27;8.02;;;;;;;4.80;78.93;99843.53;5004030;28;20484;-70
2021/03/15 09:22:18;;;;;;;12.05;8.32;;;;;;;4.82;79.42;99848.75;5006606;28;20108;-70
2021/03/15 09:24:49;;;;;;;11.98;7.50;;;;;;;4.72;78.80;99849.59;4995176;28;20069;-70
2021/03/15 09:27:25;;;;;;;9.43;6.97;;;;;;;4.73;78.77;99846.97;5003039;28;20034;-69
2021/03/15 09:30:08;;;;;;;9.55;6.93;;;;;;;4.70;78.41;99841.72;4996114;28;20386;-70
2021/03/15 09:32:44;;;;;;;11.05;7.22;;;;;;;4.56;78.55;99853.84;5005492;28;20449;-69
2021/03/15 09:35:22;;;;;;;11.90;6.72;;;;;;;4.50;79.95;99848.56;5002035;28;20038;-70
2021/03/15 09:37:56;;;;;;;9.73;7.05;;;;;;;4.55;78.68;99846.84;4995466;28;20577;-69
2021/03/15 09:40:40;;;;;;;9.32;7.38;;;;;;;4.47;80.08;99848.53;5003401;28;20046;-69
2021/03/15 09:43:06;;;;;;;9.07;7.10;;;;;;;4.38;79.94;99845.00;5006320;28;20072;-69
2021/03/15 09:45:35;;;;;;;12.52;7.68;;;;;;;4.35;81.25;99844.97;5002947;28;20076;-69
2021/03/15 09:48:04;;;;;;;14.70;8.00;;;;;;;4.46;80.08;99845.06;5002890;28;20104;-69
2021/03/15 09:50:32;;;;;;;10.27;7.70;;;;;;;4.43;80.52;99844.13;5004211;28;20118;-69
2021/03/15 09:53:13;;;;;;;11.45;8.27;;;;;;;4.43;80.80;99836.28;5004751;28;20034;-70
2021/03/15 09:55:49;;;;;;;12.18;7.65;;;;;;;4.46;81.16;99834.59;5001082;28;20034;-69
2021/03/15 09:58:17;;;;;;;9.52;7.55;;;;;;;4.47;80.65;99831.09;4985159;28;20038;-69
2021/03/15 10:00:54;;;;;;;9.02;6.50;;;;;;;4.36;80.70;99835.38;4981897;28;20130;-69
2021/03/15 10:03:40;;;;;;;12.98;7.88;;;;;;;4.25;80.71;99837.91;5019895;28;20038;-69
2021/03/15 10:06:25;;;;;;;9.00;6.93;;;;;;;4.19;82.30;99840.47;5004872;28;20049;-69
2021/03/15 10:09:09;;;;;;;9.98;6.55;;;;;;;4.35;81.93;99839.75;5002392;28;20041;-69
2021/03/15 10:11:54;;;;;;;8.20;6.07;;;;;;;4.33;81.19;99846.69;4995773;28;20113;-68
2021/03/15 10:15:06;;;;;;;9.38;6.38;;;;;;;4.45;81.70;99835.44;4981674;28;20030;-69
2021/03/15 10:17:40;;;;;;;7.20;5.45;;;;;;;4.52;81.49;99837.25;5019432;28;20526;-69
2021/03/15 10:20:07;;;;;;;8.23;5.97;;;;;;;4.56;81.34;99832.94;5005774;28;20042;-69
2021/03/15 10:22:34;;;;;;;7.45;5.47;;;;;;;4.64;81.21;99838.19;5002362;28;20029;-68
2021/03/15 10:25:03;;;;;;;8.20;5.40;;;;;;;4.55;80.60;99837.25;4984429;28;20100;-69
2021/03/15 10:27:33;;;;;;;7.03;5.43;;;;;;;4.37;81.13;99831.91;4986761;28;20030;-69
2021/03/15 10:30:11;;;;;;;6.63;4.93;;;;;;;4.44;81.26;99831.09;5003482;28;20044;-68
2021/03/15 10:32:41;;;;;;;6.57;4.70;;;;;;;4.41;81.26;99832.81;5002779;28;20113;-68
2021/03/15 10:35:08;;;;;;;6.72;4.05;;;;;;;4.35;81.82;99833.66;5000398;28;20034;-68
2021/03/15 10:37:42;;;;;;;6.78;5.22;;;;;;;4.33;81.50;99832.75;4987496;28;20029;-69
2021/03/15 10:40:23;;;;;;;7.15;4.60;;;;;;;4.27;81.19;99825.75;5004631;28;20041;-69
2021/03/15 10:42:50;;;;;;;7.63;4.70;;;;;;;4.36;81.62;99830.16;5000388;28;20030;-69
2021/03/15 10:45:17;;;;;;;7.30;4.65;;;;;;;4.31;81.36;99831.88;5001199;28;20034;-69
2021/03/15 10:48:02;;;;;;;5.75;4.10;;;;;;;4.37;81.53;99827.53;4980936;28;20035;-66
2021/03/15 10:50:36;;;;;;;7.43;4.95;;;;;;;4.38;82.94;99821.47;5000380;28;20449;-66
2021/03/15 10:53:43;;;;;;;7.43;4.25;;;;;;;4.51;82.24;99829.41;5001609;28;20061;-66
2021/03/15 10:56:18;;;;;;;6.57;4.88;;;;;;;4.54;81.75;99830.31;4999823;28;20030;-66
2021/03/15 10:58:49;;;;;;;8.40;5.68;;;;;;;4.64;83.37;99822.50;4980649;28;20043;-66
2021/03/15 11:01:24;;;;;;;6.28;4.22;;;;;;;4.60;81.77;99827.72;4993445;28;20027;-67
2021/03/15 11:04:09;;;;;;;7.65;5.80;;;;;;;4.65;82.65;99835.59;5009939;28;20407;-66
2021/03/15 11:06:36;;;;;;;6.00;4.57;;;;;;;4.63;82.11;99824.25;5003125;28;20030;-66
2021/03/15 11:09:08;;;;;;;7.43;4.53;;;;;;;4.64;81.81;99823.41;5003388;28;20129;-66
2021/03/15 11:11:33;;;;;;;6.43;4.85;;;;;;;4.69;82.17;99824.31;4996132;28;20109;-66
2021/03/15 11:14:10;;;;;;;5.60;4.50;;;;;;;5.01;79.78;99818.38;5003253;28;20514;-66
2021/03/15 11:16:40;;;;;;;6.40;5.13;;;;;;;5.03;79.76;99821.84;5000284;28;20038;-66
2021/03/15 11:19:07;;;;;;;7.25;5.20;;;;;;;5.19;79.42;99813.22;4983528;28;20026;-66
2021/03/15 11:21:40;;;;;;;6.45;5.05;;;;;;;5.35;79.84;99821.16;4980805;28;20062;-66
2021/03/15 11:24:12;;;;;;;6.75;4.00;;;;;;;5.46;78.91;99824.66;5002988;28;20045;-66
2021/03/15 11:26:59;;;;;;;5.63;3.90;;;;;;;5.26;78.82;99814.97;4995520;28;20069;-66
2021/03/15 11:29:40;;;;;;;7.57;4.80;;;;;;;5.10;78.29;99813.19;5000781;28;20133;-66
2021/03/15 11:32:24;;;;;;;4.97;3.55;;;;;;;5.07;79.38;99822.75;4994587;28;20046;-66
2021/03/15 11:34:58;;;;;;;6.55;4.70;;;;;;;4.91;80.03;99819.19;5002616;28;20041;-67
2021/03/15 11:37:32;;;;;;;6.45;4.40;;;;;;;5.02;80.13;99807.03;5001355;28;20069;-66
2021/03/15 11:40:05;;;;;;;5.72;4.13;;;;;;;5.14;78.53;99806.25;4998738;28;20034;-66
2021/03/15 11:42:38;;;;;;;6.88;4.28;;;;;;;5.16;78.61;99808.00;4985904;28;20030;-66
2021/03/15 11:45:10;;;;;;;7.22;4.20;;;;;;;5.20;79.12;99804.50;5002507;28;20034;-66
2021/03/15 11:47:35;;;;;;;6.82;4.70;;;;;;;5.53;78.89;99800.28;5000318;28;20034;-66
2021/03/15 11:50:14;;;;;;;5.68;4.25;;;;;;;6.00;77.94;99793.38;4983071;28;20034;-66
2021/03/15 11:52:52;;;;;;;7.05;4.75;;;;;;;6.09;76.49;99788.16;4992291;28;20117;-69
2021/03/15 11:55:21;;;;;;;7.47;4.18;;;;;;;6.03;75.47;99796.88;4982676;28;20034;-66
2021/03/15 11:57:47;;;;;;;8.45;4.80;;;;;;;6.12;76.72;99793.38;5002493;28;20030;-66